createdAt,value
2019-04-23T00:00:05.266Z,1.70
2019-04-23T00:02:44.413Z,2.00
2019-04-23T00:05:22.938Z,1.70
2019-04-23T00:10:24.881Z,2.20
2019-04-23T00:12:52.964Z,2.10
2019-04-23T00:15:53.195Z,2.73
2019-04-23T00:18:30.187Z,3.10
2019-04-23T00:20:57.767Z,3.00
2019-04-23T00:23:34.728Z,2.70
2019-04-23T00:28:51.960Z,2.30
2019-04-23T00:33:57.425Z,2.10
2019-04-23T00:36:32.523Z,1.97
2019-04-23T00:38:59.292Z,1.80
2019-04-23T00:41:36.298Z,2.20
2019-04-23T00:49:10.732Z,1.70
2019-04-23T00:51:50.152Z,1.80
2019-04-23T00:54:20.712Z,1.50
2019-04-23T00:56:57.082Z,1.67
2019-04-23T00:59:28.267Z,1.80
2019-04-23T01:01:57.924Z,1.70
2019-04-23T01:04:34.172Z,1.73
2019-04-23T01:07:04.448Z,1.80
2019-04-23T01:09:42.270Z,1.70
2019-04-23T01:12:19.116Z,2.10
2019-04-23T01:14:48.229Z,1.87
2019-04-23T01:17:30.189Z,2.47
2019-04-23T01:20:17.188Z,1.80
2019-04-23T01:22:14.612Z,1.87
2019-04-23T01:25:11.031Z,1.93
2019-04-23T01:28:03.968Z,1.80
2019-04-23T01:30:38.734Z,2.00
2019-04-23T01:33:09.955Z,2.10
2019-04-23T01:35:45.098Z,1.90
2019-04-23T01:38:11.470Z,8.93
2019-04-23T01:41:01.775Z,3.33
2019-04-23T01:43:38.153Z,2.17
2019-04-23T01:45:50.262Z,2.00
2019-04-23T01:48:26.148Z,2.40
2019-04-23T01:50:56.106Z,2.20
2019-04-23T01:53:37.059Z,1.97
2019-04-23T01:56:09.153Z,2.30
2019-04-23T01:58:48.148Z,2.33
2019-04-23T02:01:11.783Z,1.87
2019-04-23T02:03:46.636Z,2.13
2019-04-23T02:06:21.965Z,2.00
2019-04-23T02:08:55.265Z,2.17
2019-04-23T02:11:25.525Z,2.20
2019-04-23T02:13:55.051Z,2.33
2019-04-23T02:16:33.874Z,2.30
2019-04-23T02:19:03.347Z,2.03
2019-04-23T02:21:41.450Z,2.40
2019-04-23T02:24:14.442Z,2.10
2019-04-23T02:26:46.755Z,2.13
2019-04-23T02:29:28.729Z,2.40
2019-04-23T02:34:41.015Z,2.20
2019-04-23T02:37:15.127Z,2.60
2019-04-23T02:39:57.334Z,2.53
2019-04-23T02:50:01.724Z,2.63
2019-04-23T02:52:21.736Z,2.67
2019-04-23T02:54:57.129Z,2.77
2019-04-23T02:57:47.552Z,2.53
2019-04-23T03:02:40.908Z,2.80
2019-04-23T03:05:13.569Z,2.47
2019-04-23T03:10:16.413Z,2.90
2019-04-23T03:13:09.627Z,2.47
2019-04-23T03:16:00.711Z,2.80
2019-04-23T03:18:53.744Z,2.73
2019-04-23T03:24:11.119Z,3.07
2019-04-23T03:27:08.137Z,2.63
2019-04-23T03:29:21.862Z,3.13
2019-04-23T03:35:10.270Z,2.50
2019-04-23T03:39:47.642Z,2.80
2019-04-23T03:42:03.902Z,2.90
2019-04-23T03:44:45.290Z,2.97
2019-04-23T03:47:11.439Z,2.70
2019-04-23T03:59:55.149Z,2.87
2019-04-23T04:05:06.083Z,3.80
2019-04-23T04:07:36.262Z,3.20
2019-04-23T04:10:10.778Z,3.00
2019-04-23T04:12:41.467Z,3.13
2019-04-23T04:15:24.870Z,3.20
2019-04-23T04:17:48.702Z,3.60
2019-04-23T04:20:29.266Z,3.50
2019-04-23T04:23:00.055Z,3.87
2019-04-23T04:28:01.327Z,3.87
2019-04-23T04:33:34.066Z,3.40
2019-04-23T04:36:04.791Z,3.60
2019-04-23T04:41:13.548Z,3.50
2019-04-23T04:48:44.266Z,4.13
2019-04-23T04:56:27.582Z,4.10
2019-04-23T04:58:53.290Z,4.07
2019-04-23T05:01:25.940Z,4.37
2019-04-23T05:03:45.998Z,4.00
2019-04-23T05:06:39.422Z,4.10
2019-04-23T05:09:17.095Z,4.20
2019-04-23T05:14:08.575Z,4.50
2019-04-23T05:16:43.236Z,4.53
2019-04-23T05:19:29.691Z,4.10
2019-04-23T05:24:21.665Z,4.47
2019-04-23T05:26:51.665Z,4.60
2019-04-23T05:29:25.385Z,4.63
2019-04-23T05:31:58.186Z,4.90
2019-04-23T05:37:06.073Z,4.80
2019-04-23T05:42:13.984Z,4.87
2019-04-23T05:44:43.264Z,4.83
2019-04-23T05:47:25.445Z,5.57
2019-04-23T05:49:54.713Z,5.13
2019-04-23T05:52:24.493Z,5.73
2019-04-23T05:55:01.555Z,5.00
2019-04-23T05:57:28.554Z,5.50
2019-04-23T06:00:04.192Z,5.60
2019-04-23T06:02:45.350Z,5.50
2019-04-23T06:05:08.880Z,5.27
2019-04-23T06:07:45.711Z,5.50
2019-04-23T06:10:11.041Z,5.23
2019-04-23T06:12:45.340Z,5.27
2019-04-23T06:15:20.218Z,5.13
2019-04-23T06:17:54.184Z,5.80
2019-04-23T06:20:35.046Z,5.80
2019-04-23T06:23:06.047Z,5.90
2019-04-23T06:28:08.134Z,5.87
2019-04-23T06:33:14.657Z,6.10
2019-04-23T06:35:45.195Z,5.83
2019-04-23T06:40:59.518Z,6.10
2019-04-23T06:43:38.764Z,6.07
2019-04-23T06:46:03.645Z,6.43
2019-04-23T06:48:35.267Z,5.70
2019-04-23T06:51:15.988Z,6.40
2019-04-23T06:53:37.402Z,6.83
2019-04-23T06:56:21.124Z,7.17
2019-04-23T06:58:45.713Z,7.50
2019-04-23T07:01:19.236Z,7.33
2019-04-23T07:04:04.943Z,6.13
2019-04-23T07:09:09.911Z,6.70
2019-04-23T07:11:34.135Z,8.53
2019-04-23T07:13:58.496Z,6.33
2019-04-23T07:19:18.390Z,7.07
2019-04-23T07:21:41.743Z,6.47
2019-04-23T07:24:28.463Z,7.20
2019-04-23T07:26:42.083Z,6.30
2019-04-23T07:29:26.307Z,6.20
2019-04-23T07:34:26.661Z,7.00
2019-04-23T07:37:00.158Z,6.53
2019-04-23T07:42:29.610Z,6.63
2019-04-23T07:45:17.403Z,6.83
2019-04-23T07:48:10.836Z,6.90
2019-04-23T07:53:26.145Z,6.40
2019-04-23T08:03:22.652Z,7.47
2019-04-23T08:05:55.861Z,6.63
2019-04-23T08:13:50.400Z,7.03
2019-04-23T08:21:32.115Z,6.63
2019-04-23T08:24:20.116Z,7.23
2019-04-23T08:27:04.532Z,6.43
2019-04-23T08:29:50.388Z,6.87
2019-04-23T08:34:58.824Z,6.57
2019-04-23T08:37:54.345Z,6.60
2019-04-23T08:42:49.641Z,6.13
2019-04-23T08:50:44.939Z,6.67
2019-04-23T09:01:06.695Z,6.80
2019-04-23T09:03:34.421Z,6.60
2019-04-23T09:08:39.311Z,6.37
2019-04-23T09:11:30.456Z,7.90
2019-04-23T09:16:22.140Z,6.37
2019-04-23T09:18:53.112Z,6.73
2019-04-23T09:21:30.985Z,6.57
2019-04-23T09:23:58.508Z,6.30
2019-04-23T09:26:36.658Z,6.50
2019-04-23T09:29:04.607Z,6.50
2019-04-23T09:32:07.635Z,6.80
2019-04-23T09:34:43.152Z,6.43
2019-04-23T09:37:40.480Z,7.17
2019-04-23T09:40:46.886Z,6.43
2019-04-23T09:43:12.196Z,6.53
2019-04-23T09:46:09.690Z,7.43
2019-04-23T09:48:47.164Z,9.40
2019-04-23T09:51:15.618Z,7.00
2019-04-23T09:53:40.013Z,6.13
2019-04-23T09:56:14.226Z,6.67
2019-04-23T09:58:51.822Z,7.30
2019-04-23T10:03:54.720Z,6.40
2019-04-23T10:06:19.039Z,6.33
2019-04-23T10:08:51.959Z,6.27
2019-04-23T10:11:19.914Z,6.17
2019-04-23T10:13:52.601Z,6.30
2019-04-23T10:16:27.617Z,6.33
2019-04-23T10:18:57.376Z,6.70
2019-04-23T10:21:29.302Z,5.80
2019-04-23T10:24:01.396Z,6.30
2019-04-23T10:26:34.233Z,6.27
2019-04-23T10:29:11.792Z,6.30
2019-04-23T10:31:43.923Z,5.97
2019-04-23T10:34:19.044Z,7.07
2019-04-23T10:36:51.507Z,6.20
2019-04-23T10:39:29.588Z,6.20
2019-04-23T10:41:57.591Z,6.00
2019-04-23T10:44:55.425Z,6.80
2019-04-23T10:48:26.565Z,5.77
2019-04-23T10:53:37.862Z,6.40
2019-04-23T10:58:36.565Z,6.17
2019-04-23T11:01:14.905Z,6.27
2019-04-23T11:04:02.447Z,6.70
2019-04-23T11:06:23.521Z,6.00
2019-04-23T11:08:48.250Z,6.03
2019-04-23T11:11:30.653Z,5.80
2019-04-23T11:14:01.194Z,6.60
2019-04-23T11:16:49.551Z,5.80
2019-04-23T11:19:15.631Z,6.00
2019-04-23T11:21:40.770Z,6.43
2019-04-23T11:24:36.060Z,6.53
2019-04-23T11:29:27.320Z,6.30
2019-04-23T11:31:52.316Z,6.00
2019-04-23T11:34:50.442Z,6.50
2019-04-23T11:37:03.389Z,5.63
2019-04-23T11:39:39.780Z,6.27
2019-04-23T11:42:22.911Z,6.03
2019-04-23T11:47:42.507Z,6.50
2019-04-23T11:54:53.507Z,5.37
2019-04-23T12:02:50.079Z,6.00
2019-04-23T12:05:54.715Z,5.60
2019-04-23T12:11:49.766Z,5.33
2019-04-23T12:14:21.894Z,5.50
2019-04-23T12:29:49.090Z,6.10
2019-04-23T12:32:42.547Z,6.00
2019-04-23T12:37:45.007Z,6.17
2019-04-23T12:50:45.022Z,6.17
2019-04-23T12:53:10.324Z,5.70
2019-04-23T12:55:41.722Z,5.87
2019-04-23T12:58:19.290Z,5.97
2019-04-23T13:05:49.120Z,5.37
2019-04-23T13:08:33.603Z,5.77
2019-04-23T13:10:57.278Z,6.53
2019-04-23T13:16:03.555Z,5.57
2019-04-23T13:18:38.135Z,5.47
2019-04-23T13:21:31.423Z,6.97
2019-04-23T13:23:40.991Z,5.63
2019-04-23T13:26:11.770Z,6.17
2019-04-23T13:28:51.228Z,6.67
2019-04-23T13:31:22.141Z,5.50
2019-04-23T13:33:58.645Z,6.33
2019-04-23T13:36:36.255Z,5.43
2019-04-23T13:39:10.641Z,5.90
2019-04-23T13:41:52.110Z,5.53
2019-04-23T13:44:08.436Z,5.47
2019-04-23T13:46:40.542Z,5.83
2019-04-23T13:49:18.381Z,5.50
2019-04-23T13:51:54.979Z,5.40
2019-04-23T13:54:46.454Z,5.27
2019-04-23T13:59:52.270Z,5.23
2019-04-23T14:02:17.057Z,5.60
2019-04-23T14:05:06.288Z,5.40
2019-04-23T14:07:50.959Z,5.60
2019-04-23T14:12:53.426Z,5.67
2019-04-23T14:18:17.002Z,6.20
2019-04-23T14:20:28.095Z,5.07
2019-04-23T14:23:09.430Z,5.60
2019-04-23T14:25:40.077Z,5.50
2019-04-23T14:30:46.680Z,4.87
2019-04-23T14:33:20.112Z,5.20
2019-04-23T14:35:44.963Z,5.33
2019-04-23T14:41:05.246Z,4.40
2019-04-23T14:43:31.465Z,4.87
2019-04-23T14:49:04.159Z,4.03
2019-04-23T14:54:12.867Z,4.07
2019-04-23T14:56:46.363Z,4.00
2019-04-23T14:59:10.652Z,3.90
2019-04-23T15:04:28.941Z,4.00
2019-04-23T15:07:07.533Z,4.10
2019-04-23T15:09:33.884Z,3.90
2019-04-23T15:12:09.989Z,3.90
2019-04-23T15:14:45.951Z,4.27
2019-04-23T15:17:13.141Z,4.43
2019-04-23T15:19:49.344Z,4.27
2019-04-23T15:22:20.046Z,4.47
2019-04-23T15:27:45.307Z,4.47
2019-04-23T15:28:03.939Z,3.87
2019-04-23T15:29:52.582Z,4.40
2019-04-23T15:32:44.172Z,4.47
2019-04-23T15:35:16.510Z,4.60
2019-04-23T15:37:58.243Z,4.30
2019-04-23T15:40:15.222Z,4.37
2019-04-23T15:42:53.833Z,4.13
2019-04-23T15:47:58.807Z,4.23
2019-04-23T15:50:28.383Z,3.90
2019-04-23T15:52:58.871Z,3.97
2019-04-23T15:55:27.681Z,4.40
2019-04-23T16:00:36.632Z,4.70
2019-04-23T16:02:43.431Z,4.57
2019-04-23T16:05:16.884Z,4.17
2019-04-23T16:08:07.468Z,4.00
2019-04-23T16:10:58.693Z,4.90
2019-04-23T16:13:32.460Z,4.20
2019-04-23T16:15:59.571Z,4.97
2019-04-23T16:18:45.308Z,4.47
2019-04-23T16:23:43.843Z,3.67
2019-04-23T16:26:24.238Z,4.40
2019-04-23T16:29:23.142Z,4.20
2019-04-23T16:36:54.765Z,4.03
2019-04-23T16:39:22.222Z,4.10
2019-04-23T16:42:02.074Z,4.30
2019-04-23T16:44:38.202Z,3.80
2019-04-23T16:47:21.718Z,4.00
2019-04-23T16:49:57.586Z,4.20
2019-04-23T16:52:07.933Z,4.57
2019-04-23T16:54:51.812Z,4.47
2019-04-23T17:00:15.167Z,4.10
2019-04-23T17:02:24.605Z,3.93
2019-04-23T17:04:57.946Z,4.23
2019-04-23T17:07:24.147Z,4.10
2019-04-23T17:10:09.066Z,4.27
2019-04-23T17:12:38.687Z,4.27
2019-04-23T17:15:27.390Z,4.07
2019-04-23T17:17:38.057Z,4.33
2019-04-23T17:20:16.254Z,4.10
2019-04-23T17:22:47.988Z,3.90
2019-04-23T17:25:17.604Z,4.00
2019-04-23T17:28:09.006Z,4.13
2019-04-23T17:30:28.129Z,4.17
2019-04-23T17:33:13.494Z,4.43
2019-04-23T17:36:07.108Z,4.17
2019-04-23T17:38:37.674Z,4.37
2019-04-23T17:41:29.330Z,4.03
2019-04-23T17:44:01.442Z,3.83
2019-04-23T17:46:32.405Z,4.17
2019-04-23T17:49:04.356Z,4.20
2019-04-23T17:51:34.489Z,4.40
2019-04-23T17:54:17.374Z,4.30
2019-04-23T17:56:55.933Z,4.30
2019-04-23T17:59:24.721Z,4.43
2019-04-23T18:02:24.281Z,4.80
2019-04-23T18:04:27.458Z,4.30
2019-04-23T18:06:56.327Z,4.10
2019-04-23T18:09:37.179Z,4.37
2019-04-23T18:12:16.878Z,4.30
2019-04-23T18:14:30.845Z,4.17
2019-04-23T18:17:12.889Z,4.50
2019-04-23T18:20:05.290Z,4.67
2019-04-23T18:28:00.601Z,4.40
2019-04-23T18:31:09.602Z,4.07
2019-04-23T18:36:26.192Z,4.43
2019-04-23T18:39:04.900Z,4.73
2019-04-23T18:41:35.220Z,4.13
2019-04-23T18:44:18.484Z,4.40
2019-04-23T18:46:42.162Z,4.60
2019-04-23T18:49:33.142Z,4.63
2019-04-23T18:51:51.264Z,4.80
2019-04-23T18:54:23.555Z,4.90
2019-04-23T18:59:37.276Z,4.57
2019-04-23T19:02:20.049Z,4.70
2019-04-23T19:05:03.485Z,5.33
2019-04-23T19:07:54.778Z,5.13
2019-04-23T19:10:31.859Z,5.87
2019-04-23T19:13:09.677Z,6.03
2019-04-23T19:18:18.721Z,6.27
2019-04-23T19:23:36.733Z,6.27
2019-04-23T19:26:00.096Z,6.30
2019-04-23T19:31:26.299Z,6.27
2019-04-23T19:34:21.410Z,6.40
2019-04-23T19:41:55.685Z,6.90
2019-04-23T19:47:06.904Z,6.43
2019-04-23T19:49:28.280Z,6.93
2019-04-23T19:57:22.816Z,7.10
2019-04-23T19:59:46.332Z,7.53
2019-04-23T20:02:21.832Z,7.73
2019-04-23T20:04:50.785Z,6.90
2019-04-23T20:09:51.606Z,7.50
2019-04-23T20:12:28.252Z,7.47
2019-04-23T20:15:07.319Z,7.50
2019-04-23T20:20:26.469Z,7.10
2019-04-23T20:22:48.485Z,7.50
2019-04-23T20:27:52.313Z,7.67
2019-04-23T20:36:00.660Z,7.70
2019-04-23T20:41:14.675Z,7.67
2019-04-23T20:43:46.791Z,7.67
2019-04-23T20:46:06.574Z,8.00
2019-04-23T20:48:48.962Z,7.70
2019-04-23T20:51:18.736Z,7.77
2019-04-23T20:56:25.405Z,7.63
2019-04-23T21:01:38.609Z,8.10
2019-04-23T21:04:13.764Z,8.47
2019-04-23T21:06:48.803Z,7.83
2019-04-23T21:12:04.888Z,7.80
2019-04-23T21:14:41.429Z,8.20
2019-04-23T21:17:05.373Z,7.80
2019-04-23T21:19:30.791Z,7.60
2019-04-23T21:22:09.076Z,7.67
2019-04-23T21:24:42.865Z,7.40
2019-04-23T21:27:21.703Z,7.73
2019-04-23T21:32:33.691Z,7.57
2019-04-23T21:35:04.544Z,8.13
2019-04-23T21:37:49.732Z,7.70
2019-04-23T21:41:00.983Z,8.03
2019-04-23T21:43:25.001Z,7.73
2019-04-23T21:46:02.464Z,7.20
2019-04-23T21:48:42.037Z,7.97
2019-04-23T21:51:15.810Z,8.07
2019-04-23T21:53:32.879Z,7.80
2019-04-23T21:58:49.162Z,7.53
2019-04-23T22:01:28.088Z,7.30
2019-04-23T22:16:53.924Z,8.07
2019-04-23T22:21:50.919Z,8.47
2019-04-23T22:24:12.242Z,7.97
2019-04-23T22:27:02.799Z,8.70
2019-04-23T22:32:04.390Z,8.10
2019-04-23T22:34:39.853Z,8.03
2019-04-23T22:37:17.847Z,8.90
2019-04-23T22:39:46.960Z,8.13
2019-04-23T22:42:36.266Z,7.77
2019-04-23T22:44:59.146Z,7.90
2019-04-23T22:47:28.129Z,8.17
2019-04-23T22:50:02.676Z,7.63
2019-04-23T22:52:31.487Z,8.00
2019-04-23T22:55:07.902Z,8.70
2019-04-23T22:57:59.908Z,8.20
2019-04-23T23:00:13.369Z,8.00
2019-04-23T23:02:58.339Z,8.00
2019-04-23T23:05:53.815Z,8.13
2019-04-23T23:08:11.461Z,8.07
2019-04-23T23:10:44.650Z,8.33
2019-04-23T23:13:10.976Z,7.43
2019-04-23T23:15:57.511Z,8.10
2019-04-23T23:18:40.555Z,7.87
2019-04-23T23:23:34.664Z,7.40
2019-04-23T23:28:38.110Z,7.37
2019-04-23T23:31:07.055Z,7.67
2019-04-23T23:39:05.522Z,6.60
2019-04-23T23:44:08.155Z,6.17
2019-04-23T23:47:16.288Z,6.07
2019-04-23T23:49:08.269Z,6.07
2019-04-23T23:51:39.877Z,5.67
2019-04-23T23:54:08.197Z,5.40
2019-04-23T23:56:39.116Z,5.33
2019-04-23T23:59:27.024Z,5.30
